createdAt,value
2019-06-08T00:01:33.458Z,9.45
2019-06-08T00:03:38.710Z,10.83
2019-06-08T00:05:44.210Z,11.22
2019-06-08T00:07:49.714Z,11.25
2019-06-08T00:09:55.175Z,9.48
2019-06-08T00:12:00.687Z,10.25
2019-06-08T00:14:06.158Z,11.83
2019-06-08T00:16:11.663Z,10.63
2019-06-08T00:18:17.394Z,10.55
2019-06-08T00:20:23.757Z,10.03
2019-06-08T00:22:29.261Z,10.82
2019-06-08T00:24:34.764Z,9.95
2019-06-08T00:26:40.213Z,9.98
2019-06-08T00:28:45.671Z,9.60
2019-06-08T00:30:51.159Z,11.05
2019-06-08T00:32:56.591Z,10.75
2019-06-08T00:35:02.110Z,10.93
2019-06-08T00:37:07.607Z,10.32
2019-06-08T00:39:13.078Z,11.53
2019-06-08T00:41:20.254Z,10.05
2019-06-08T00:43:25.758Z,11.63
2019-06-08T00:45:31.251Z,11.30
2019-06-08T00:47:47.516Z,10.00
2019-06-08T00:49:43.947Z,10.32
2019-06-08T00:51:49.406Z,10.55
2019-06-08T00:53:54.956Z,10.05
2019-06-08T00:56:00.480Z,9.85
2019-06-08T00:58:12.106Z,9.73
2019-06-08T01:00:20.281Z,9.75
2019-06-08T01:02:26.793Z,9.35
2019-06-08T01:04:32.385Z,11.63
2019-06-08T01:06:37.890Z,11.45
2019-06-08T01:08:43.511Z,10.15
2019-06-08T01:10:48.966Z,10.30
2019-06-08T01:12:54.496Z,10.63
2019-06-08T01:14:59.990Z,10.63
2019-06-08T01:17:05.419Z,9.98
2019-06-08T01:19:10.923Z,10.98
2019-06-08T01:21:16.371Z,11.25
2019-06-08T01:23:21.862Z,11.55
2019-06-08T01:25:27.972Z,10.23
2019-06-08T01:27:33.452Z,10.78
2019-06-08T01:29:38.899Z,11.38
2019-06-08T01:31:44.408Z,12.55
2019-06-08T01:33:50.005Z,10.70
2019-06-08T01:35:57.046Z,12.33
2019-06-08T01:38:02.475Z,11.45
2019-06-08T01:40:09.151Z,11.68
2019-06-08T01:42:14.614Z,10.63
2019-06-08T01:44:20.062Z,12.25
2019-06-08T01:46:25.910Z,11.08
2019-06-08T01:48:32.323Z,10.85
2019-06-08T01:50:37.846Z,10.75
2019-06-08T01:52:43.359Z,10.30
2019-06-08T01:54:48.987Z,11.10
2019-06-08T01:56:54.435Z,9.90
2019-06-08T01:59:00.347Z,9.65
2019-06-08T02:01:05.868Z,9.23
2019-06-08T02:03:11.867Z,10.45
2019-06-08T02:05:21.461Z,11.10
2019-06-08T02:07:26.394Z,10.15
2019-06-08T02:09:32.773Z,10.20
2019-06-08T02:11:38.355Z,11.18
2019-06-08T02:13:43.851Z,11.18
2019-06-08T02:15:49.434Z,10.53
2019-06-08T02:17:55.067Z,11.63
2019-06-08T02:20:00.483Z,9.45
2019-06-08T02:22:06.080Z,10.98
2019-06-08T02:24:11.672Z,11.20
2019-06-08T02:26:17.110Z,12.03
2019-06-08T02:28:23.002Z,12.13
2019-06-08T02:30:31.250Z,10.43
2019-06-08T02:32:37.587Z,11.73
2019-06-08T02:34:43.401Z,11.10
2019-06-08T02:36:49.454Z,11.90
2019-06-08T02:38:55.075Z,11.63
2019-06-08T02:41:00.560Z,11.38
2019-06-08T02:43:07.867Z,12.05
2019-06-08T02:45:14.607Z,11.78
2019-06-08T02:47:20.116Z,11.00
2019-06-08T02:49:25.672Z,11.95
2019-06-08T02:51:33.799Z,10.20
2019-06-08T02:53:38.875Z,12.43
2019-06-08T02:55:45.908Z,12.75
2019-06-08T02:57:51.815Z,11.55
2019-06-08T03:00:00.239Z,12.80
2019-06-08T03:02:05.923Z,11.88
2019-06-08T03:04:13.324Z,11.33
2019-06-08T03:06:22.817Z,11.73
2019-06-08T03:08:32.263Z,10.55
2019-06-08T03:10:41.318Z,12.03
2019-06-08T03:12:48.498Z,9.80
2019-06-08T03:14:55.363Z,12.50
2019-06-08T03:17:00.798Z,10.68
2019-06-08T03:19:21.247Z,11.28
2019-06-08T03:21:13.451Z,10.43
2019-06-08T03:23:18.875Z,11.05
2019-06-08T03:25:24.425Z,13.88
2019-06-08T03:27:29.949Z,10.00
2019-06-08T03:29:37.094Z,11.12
2019-06-08T03:31:51.249Z,9.88
2019-06-08T03:33:54.869Z,11.50
2019-06-08T03:35:58.458Z,11.05
2019-06-08T03:38:03.980Z,10.40
2019-06-08T03:40:09.412Z,11.55
2019-06-08T03:42:14.848Z,11.40
2019-06-08T03:44:20.367Z,11.45
2019-06-08T03:46:25.979Z,11.60
2019-06-08T03:48:31.429Z,11.53
2019-06-08T03:50:37.530Z,11.78
2019-06-08T03:52:45.828Z,10.98
2019-06-08T03:54:51.148Z,11.95
2019-06-08T03:56:56.662Z,11.43
2019-06-08T03:59:02.125Z,11.73
2019-06-08T04:01:07.707Z,11.33
2019-06-08T04:03:13.197Z,11.75
2019-06-08T04:05:18.717Z,10.53
2019-06-08T04:07:24.178Z,11.68
2019-06-08T04:09:29.655Z,11.12
2019-06-08T04:11:37.939Z,11.95
2019-06-08T04:13:46.907Z,11.33
2019-06-08T04:15:54.380Z,10.40
2019-06-08T04:17:59.928Z,12.65
2019-06-08T04:20:11.201Z,12.15
2019-06-08T04:22:13.391Z,12.93
2019-06-08T04:24:19.013Z,10.43
2019-06-08T04:26:24.578Z,12.53
2019-06-08T04:28:29.735Z,11.30
2019-06-08T04:30:35.179Z,9.88
2019-06-08T04:32:40.828Z,9.30
2019-06-08T04:34:47.432Z,11.30
2019-06-08T04:36:52.921Z,10.10
2019-06-08T04:38:58.090Z,9.67
2019-06-08T04:41:03.318Z,11.77
2019-06-08T04:43:08.526Z,10.60
2019-06-08T04:45:14.062Z,9.60
2019-06-08T04:47:19.355Z,10.87
2019-06-08T04:49:24.588Z,9.90
2019-06-08T04:51:29.747Z,9.97
2019-06-08T04:53:35.002Z,9.10
2019-06-08T04:55:40.902Z,9.40
2019-06-08T04:57:48.660Z,12.07
2019-06-08T04:59:53.196Z,10.17
2019-06-08T05:01:58.434Z,9.27
2019-06-08T05:04:03.662Z,9.23
2019-06-08T05:06:08.897Z,8.83
2019-06-08T05:08:14.148Z,9.53
2019-06-08T05:10:19.305Z,9.50
2019-06-08T05:12:24.522Z,9.03
2019-06-08T05:14:29.763Z,8.30
2019-06-08T05:16:34.910Z,9.80
2019-06-08T05:18:41.240Z,9.07
2019-06-08T05:20:49.126Z,8.30
2019-06-08T05:22:53.875Z,7.53
2019-06-08T05:24:59.036Z,7.60
2019-06-08T05:27:04.389Z,7.10
2019-06-08T05:29:10.494Z,7.70
2019-06-08T05:31:16.232Z,7.77
2019-06-08T05:33:21.735Z,7.57
2019-06-08T05:35:27.702Z,9.00
2019-06-08T05:37:32.929Z,7.57
2019-06-08T05:39:39.436Z,7.10
2019-06-08T05:41:45.519Z,8.83
2019-06-08T05:43:50.729Z,8.00
2019-06-08T05:45:56.568Z,7.00
2019-06-08T05:48:07.648Z,7.97
2019-06-08T05:50:12.918Z,7.00
2019-06-08T05:52:18.360Z,8.40
2019-06-08T05:54:23.635Z,7.23
2019-06-08T05:56:28.852Z,8.10
2019-06-08T05:58:34.075Z,6.90
2019-06-08T06:00:40.218Z,5.60
2019-06-08T06:02:46.961Z,7.67
2019-06-08T06:04:56.931Z,6.30
2019-06-08T06:07:02.192Z,7.33
2019-06-08T06:09:08.728Z,7.30
2019-06-08T06:11:13.902Z,6.37
2019-06-08T06:13:19.232Z,6.53
2019-06-08T06:15:24.502Z,6.30
2019-06-08T06:17:29.671Z,6.70
2019-06-08T06:19:34.846Z,6.60
2019-06-08T06:21:40.973Z,5.90
2019-06-08T06:23:47.291Z,6.67
2019-06-08T06:25:52.485Z,5.97
2019-06-08T06:27:58.071Z,5.80
2019-06-08T06:30:03.514Z,5.20
2019-06-08T06:32:08.735Z,5.00
2019-06-08T06:34:13.946Z,5.67
2019-06-08T06:36:19.609Z,5.30
2019-06-08T06:38:25.219Z,6.03
2019-06-08T06:40:30.414Z,5.50
2019-06-08T06:42:35.554Z,5.97
2019-06-08T06:44:42.139Z,6.00
2019-06-08T06:46:48.006Z,5.90
2019-06-08T06:48:53.263Z,5.53
2019-06-08T06:50:58.451Z,5.33
2019-06-08T06:53:05.310Z,5.20
2019-06-08T06:55:10.666Z,5.63
2019-06-08T06:57:15.939Z,5.47
2019-06-08T06:59:21.142Z,5.10
2019-06-08T07:01:26.470Z,4.23
2019-06-08T07:03:31.579Z,4.70
2019-06-08T07:05:36.899Z,5.03
2019-06-08T07:07:42.168Z,4.70
2019-06-08T07:09:48.402Z,4.20
2019-06-08T07:11:56.219Z,4.70
2019-06-08T07:14:00.530Z,3.73
2019-06-08T07:16:17.993Z,5.10
2019-06-08T07:18:12.567Z,4.77
2019-06-08T07:20:17.713Z,4.07
2019-06-08T07:22:22.967Z,6.23
2019-06-08T07:24:28.298Z,4.00
2019-06-08T07:26:33.487Z,3.63
2019-06-08T07:28:38.719Z,4.10
2019-06-08T07:30:44.167Z,3.93
2019-06-08T07:32:49.324Z,4.03
2019-06-08T07:34:55.331Z,3.47
2019-06-08T07:37:00.679Z,3.90
2019-06-08T07:39:07.500Z,3.70
2019-06-08T07:41:12.650Z,3.50
2019-06-08T07:43:17.773Z,3.40
2019-06-08T07:45:23.044Z,2.97
2019-06-08T07:47:28.327Z,4.37
2019-06-08T07:49:33.696Z,3.20
2019-06-08T07:51:39.104Z,3.00
2019-06-08T07:53:49.700Z,3.50
2019-06-08T07:55:57.711Z,3.33
2019-06-08T07:58:02.925Z,4.30
2019-06-08T08:00:09.799Z,3.10
2019-06-08T08:02:15.202Z,2.70
2019-06-08T08:04:22.907Z,3.33
2019-06-08T08:06:30.363Z,3.33
2019-06-08T08:08:35.384Z,2.77
2019-06-08T08:10:40.598Z,3.67
2019-06-08T08:12:45.783Z,3.20
2019-06-08T08:14:55.216Z,2.60
2019-06-08T08:17:00.711Z,3.30
2019-06-08T08:19:06.043Z,2.70
2019-06-08T08:21:21.257Z,2.57
2019-06-08T08:23:19.824Z,2.70
2019-06-08T08:25:24.958Z,2.90
2019-06-08T08:27:30.135Z,2.80
2019-06-08T08:29:38.023Z,3.30
2019-06-08T08:31:42.202Z,3.50
2019-06-08T08:33:49.725Z,2.40
2019-06-08T08:35:55.507Z,2.47
2019-06-08T08:38:04.615Z,3.57
2019-06-08T08:40:10.186Z,3.50
2019-06-08T08:42:17.853Z,2.73
2019-06-08T08:44:22.391Z,3.40
2019-06-08T08:46:30.275Z,3.07
2019-06-08T08:48:37.574Z,3.80
2019-06-08T08:50:42.626Z,2.83
2019-06-08T08:52:47.867Z,3.10
2019-06-08T08:54:54.197Z,3.03
2019-06-08T08:57:04.494Z,2.87
2019-06-08T08:59:07.749Z,3.47
2019-06-08T09:01:17.623Z,3.30
2019-06-08T09:03:28.741Z,3.30
2019-06-08T09:05:28.082Z,3.20
2019-06-08T09:07:33.543Z,3.00
2019-06-08T09:09:38.852Z,3.17
2019-06-08T09:11:48.393Z,3.13
2019-06-08T09:13:55.694Z,2.03
2019-06-08T09:16:03.912Z,3.00
2019-06-08T09:18:09.089Z,3.37
2019-06-08T09:20:19.170Z,3.70
2019-06-08T09:22:23.494Z,3.40
2019-06-08T09:24:29.072Z,2.97
2019-06-08T09:26:35.085Z,2.90
2019-06-08T09:28:40.994Z,2.63
2019-06-08T09:30:48.221Z,3.13
2019-06-08T09:32:54.841Z,3.00
2019-06-08T09:35:02.876Z,3.33
2019-06-08T09:37:08.053Z,3.23
2019-06-08T09:39:13.894Z,2.90
2019-06-08T09:41:19.165Z,3.47
2019-06-08T09:43:24.545Z,2.63
2019-06-08T09:45:31.451Z,2.67
2019-06-08T09:47:38.375Z,2.53
2019-06-08T09:49:43.793Z,2.30
2019-06-08T09:51:49.951Z,2.63
2019-06-08T09:53:55.939Z,2.63
2019-06-08T09:56:06.452Z,2.40
2019-06-08T09:58:11.838Z,3.27
2019-06-08T10:00:21.343Z,3.10
2019-06-08T10:02:21.878Z,3.07
2019-06-08T10:04:29.069Z,3.30
2019-06-08T10:06:32.543Z,3.20
2019-06-08T10:08:38.768Z,3.07
2019-06-08T10:10:43.516Z,3.20
2019-06-08T10:12:49.749Z,2.80
2019-06-08T10:14:54.580Z,3.23
2019-06-08T10:17:01.179Z,2.47
2019-06-08T10:19:07.369Z,2.40
2019-06-08T10:21:11.411Z,3.10
2019-06-08T10:23:28.118Z,3.20
2019-06-08T10:25:22.165Z,2.57
2019-06-08T10:27:28.347Z,3.03
2019-06-08T10:29:32.972Z,2.80
2019-06-08T10:31:43.042Z,2.80
2019-06-08T10:33:43.761Z,3.83
2019-06-08T10:35:48.856Z,2.70
2019-06-08T10:37:55.636Z,3.73
2019-06-08T10:40:03.532Z,3.70
2019-06-08T10:42:10.155Z,3.70
2019-06-08T10:44:14.596Z,3.57
2019-06-08T10:46:20.958Z,3.07
2019-06-08T10:48:27.577Z,3.90
2019-06-08T10:50:31.834Z,3.23
2019-06-08T10:52:38.983Z,3.80
2019-06-08T10:54:44.371Z,5.30
2019-06-08T10:56:48.951Z,4.90
2019-06-08T10:58:53.604Z,5.63
2019-06-08T11:01:02.189Z,6.03
2019-06-08T11:03:05.855Z,6.47
2019-06-08T11:05:13.845Z,5.57
2019-06-08T11:07:16.858Z,6.50
2019-06-08T11:09:21.555Z,5.87
2019-06-08T11:11:28.413Z,6.67
2019-06-08T11:13:32.443Z,6.23
2019-06-08T11:15:37.833Z,6.20
2019-06-08T11:17:42.492Z,5.57
2019-06-08T11:19:48.032Z,6.20
2019-06-08T11:21:52.655Z,5.97
2019-06-08T11:24:13.382Z,6.50
2019-06-08T11:26:13.565Z,6.30
2019-06-08T11:28:15.100Z,6.30
2019-06-08T11:30:26.764Z,6.50
2019-06-08T11:32:26.776Z,6.80
2019-06-08T11:34:31.287Z,5.80
2019-06-08T11:36:35.858Z,5.57
2019-06-08T11:38:40.429Z,6.10
2019-06-08T11:40:44.950Z,5.87
2019-06-08T11:42:49.444Z,6.07
2019-06-08T11:44:54.042Z,5.67
2019-06-08T11:46:58.582Z,5.80
2019-06-08T11:49:04.893Z,6.00
2019-06-08T11:51:11.645Z,5.33
2019-06-08T11:53:17.898Z,6.37
2019-06-08T11:55:21.604Z,5.70
2019-06-08T11:57:28.213Z,6.00
2019-06-08T11:59:32.574Z,6.07
2019-06-08T12:01:37.134Z,6.20
2019-06-08T12:03:41.682Z,6.47
2019-06-08T12:05:47.807Z,6.70
2019-06-08T12:07:52.421Z,6.93
2019-06-08T12:09:58.349Z,8.10
2019-06-08T12:12:03.022Z,7.10
2019-06-08T12:14:09.210Z,6.83
2019-06-08T12:16:15.857Z,6.80
2019-06-08T12:18:19.896Z,7.20
2019-06-08T12:20:27.854Z,6.73
2019-06-08T12:22:30.619Z,7.50
2019-06-08T12:24:41.889Z,7.60
2019-06-08T12:26:41.446Z,7.43
2019-06-08T12:28:48.459Z,7.00
2019-06-08T12:30:52.153Z,7.57
2019-06-08T12:32:58.139Z,7.50
2019-06-08T12:35:02.792Z,6.67
2019-06-08T12:37:12.158Z,7.50
2019-06-08T12:39:14.299Z,7.77
2019-06-08T12:41:19.354Z,7.53
2019-06-08T12:43:24.018Z,9.20
2019-06-08T12:45:28.572Z,7.10
2019-06-08T12:47:33.225Z,7.83
2019-06-08T12:49:39.934Z,8.80
2019-06-08T12:51:44.034Z,7.47
2019-06-08T12:53:48.560Z,7.80
2019-06-08T12:55:53.025Z,8.43
2019-06-08T12:57:58.131Z,7.83
2019-06-08T13:00:02.740Z,7.00
2019-06-08T13:02:10.607Z,8.40
2019-06-08T13:04:13.806Z,6.90
2019-06-08T13:06:18.508Z,5.87
2019-06-08T13:08:24.235Z,7.60
2019-06-08T13:10:28.758Z,6.70
2019-06-08T13:12:33.300Z,5.80
2019-06-08T13:14:38.524Z,5.80
2019-06-08T13:16:43.229Z,6.87
2019-06-08T13:18:48.312Z,6.40
2019-06-08T13:20:52.842Z,5.90
2019-06-08T13:22:57.579Z,6.70
2019-06-08T13:25:15.808Z,6.30
2019-06-08T13:27:13.199Z,6.60
2019-06-08T13:29:18.832Z,6.80
2019-06-08T13:31:24.642Z,5.90
2019-06-08T13:33:28.567Z,6.67
2019-06-08T13:35:33.094Z,6.80
2019-06-08T13:37:39.018Z,6.70
2019-06-08T13:39:43.771Z,6.80
2019-06-08T13:41:48.311Z,6.53
2019-06-08T13:43:52.857Z,6.50
2019-06-08T13:45:58.333Z,6.67
2019-06-08T13:48:03.870Z,5.90
2019-06-08T15:49:55.690Z,2.27
2019-06-08T15:52:00.260Z,2.23
2019-06-08T15:54:04.855Z,2.27
2019-06-08T15:56:09.409Z,2.33
2019-06-08T15:58:13.975Z,2.27
2019-06-08T16:00:18.718Z,2.40
2019-06-08T16:02:23.233Z,2.70
2019-06-08T16:04:27.862Z,2.30
2019-06-08T16:06:33.658Z,2.20
2019-06-08T16:08:38.447Z,2.07
2019-06-08T16:10:43.075Z,1.73
2019-06-08T16:12:47.606Z,2.00
2019-06-08T16:14:52.162Z,1.73
2019-06-08T16:16:56.611Z,2.47
2019-06-08T16:19:01.120Z,2.10
2019-06-08T16:21:07.912Z,2.00
2019-06-08T16:23:12.506Z,2.00
2019-06-08T16:25:17.067Z,2.30
2019-06-08T16:27:21.546Z,2.00
2019-06-08T16:29:26.800Z,2.10
2019-06-08T16:31:31.414Z,3.70
2019-06-08T16:33:35.966Z,2.40
2019-06-08T16:35:40.602Z,1.80
2019-06-08T16:37:45.133Z,1.57
2019-06-08T16:39:49.646Z,1.73
2019-06-08T16:41:54.147Z,2.83
2019-06-08T16:43:58.643Z,2.17
2019-06-08T16:46:03.245Z,1.73
2019-06-08T16:48:08.990Z,1.50
2019-06-08T16:50:23.885Z,1.37
2019-06-08T16:52:19.679Z,1.50
2019-06-08T16:54:24.295Z,1.30
2019-06-08T16:56:30.057Z,1.83
2019-06-08T16:58:34.722Z,1.47
2019-06-08T17:00:42.138Z,1.97
2019-06-08T17:02:45.372Z,1.83
2019-06-08T17:04:49.888Z,2.57
2019-06-08T17:06:54.342Z,1.67
2019-06-08T17:08:58.762Z,1.57
2019-06-08T17:11:03.225Z,2.47
2019-06-08T17:13:11.063Z,1.80
2019-06-08T17:15:13.964Z,1.60
2019-06-08T17:17:18.438Z,2.30
2019-06-08T17:19:22.935Z,1.83
2019-06-08T17:21:27.404Z,1.63
2019-06-08T17:23:32.394Z,1.60
2019-06-08T17:25:38.777Z,1.93
2019-06-08T17:27:43.374Z,1.60
2019-06-08T17:29:47.820Z,1.93
2019-06-08T17:31:52.299Z,2.20
2019-06-08T17:33:56.718Z,1.73
2019-06-08T17:36:01.138Z,1.40
2019-06-08T17:38:05.595Z,2.10
2019-06-08T17:40:10.154Z,1.70
2019-06-08T17:42:14.649Z,2.00
2019-06-08T17:44:19.171Z,1.77
2019-06-08T17:46:23.595Z,1.80
2019-06-08T17:48:28.062Z,2.07
2019-06-08T17:50:32.724Z,2.67
2019-06-08T17:52:37.254Z,1.93
2019-06-08T17:54:42.085Z,2.10
2019-06-08T17:56:47.655Z,1.57
2019-06-08T17:58:52.146Z,2.40
2019-06-08T18:00:56.571Z,1.97
2019-06-08T18:03:01.031Z,1.53
2019-06-08T18:05:07.039Z,1.93
2019-06-08T18:07:11.522Z,2.30
2019-06-08T18:09:17.817Z,1.60
2019-06-08T18:11:22.372Z,2.13
2019-06-08T18:13:27.323Z,1.90
2019-06-08T18:15:38.332Z,2.10
2019-06-08T18:17:43.459Z,2.13
2019-06-08T18:19:49.731Z,2.20
2019-06-08T18:21:54.065Z,2.13
2019-06-08T18:23:59.330Z,1.77
2019-06-08T18:26:04.094Z,1.97
2019-06-08T18:28:13.217Z,1.97
2019-06-08T18:30:18.482Z,1.83
2019-06-08T18:32:22.103Z,1.93
2019-06-08T18:34:28.524Z,2.00
2019-06-08T18:36:32.898Z,2.07
2019-06-08T18:38:39.771Z,2.60
2019-06-08T18:40:48.378Z,1.80
2019-06-08T18:42:53.135Z,2.13
2019-06-08T18:45:00.144Z,2.00
2019-06-08T18:47:07.069Z,2.20
2019-06-08T18:49:14.051Z,2.07
2019-06-08T18:51:18.675Z,2.00
2019-06-08T18:53:23.907Z,1.73
2019-06-08T18:55:28.398Z,2.17
2019-06-08T18:57:38.123Z,2.13
2019-06-08T18:59:46.601Z,1.80
2019-06-08T19:01:49.858Z,2.10
2019-06-08T19:03:57.889Z,2.03
2019-06-08T19:06:02.803Z,2.13
2019-06-08T19:08:10.074Z,2.10
2019-06-08T19:10:17.328Z,2.10
2019-06-08T19:12:22.286Z,2.10
2019-06-08T19:14:28.708Z,2.07
2019-06-08T19:16:33.084Z,1.80
2019-06-08T19:18:43.255Z,1.53
2019-06-08T19:20:46.208Z,2.43
2019-06-08T19:22:54.187Z,2.00
2019-06-08T19:24:56.478Z,2.00
2019-06-08T19:27:01.223Z,2.27
2019-06-08T19:29:07.699Z,2.03
2019-06-08T19:31:12.087Z,2.40
2019-06-08T19:33:18.702Z,2.47
2019-06-08T19:35:23.155Z,1.43
2019-06-08T19:37:32.053Z,2.00
2019-06-08T19:39:39.604Z,1.93
2019-06-08T19:41:44.286Z,2.57
2019-06-08T19:43:54.468Z,2.10
2019-06-08T19:45:58.026Z,2.60
2019-06-08T19:48:02.721Z,2.07
2019-06-08T19:50:07.846Z,2.43
2019-06-08T19:52:12.359Z,2.30
2019-06-08T19:54:18.257Z,3.00
2019-06-08T19:56:23.091Z,2.33
2019-06-08T19:58:28.388Z,2.30
2019-06-08T20:00:32.974Z,2.27
2019-06-08T20:02:37.832Z,2.43
2019-06-08T20:04:42.935Z,2.40
2019-06-08T20:06:48.057Z,1.90
2019-06-08T20:08:53.816Z,2.03
2019-06-08T20:10:58.364Z,2.53
2019-06-08T20:13:02.868Z,2.20
2019-06-08T20:15:08.485Z,2.20
2019-06-08T20:17:13.287Z,2.77
2019-06-08T20:19:17.786Z,2.23
2019-06-08T20:21:22.447Z,2.30
2019-06-08T20:23:27.573Z,2.20
2019-06-08T20:25:32.280Z,2.50
2019-06-08T20:27:37.291Z,2.43
2019-06-08T20:29:43.279Z,2.53
2019-06-08T20:31:48.625Z,3.00
2019-06-08T20:33:54.059Z,2.07
2019-06-08T20:35:58.963Z,2.37
2019-06-08T20:38:03.451Z,1.73
2019-06-08T20:40:13.593Z,2.30
2019-06-08T20:42:17.185Z,2.20
2019-06-08T20:44:20.829Z,2.17
2019-06-08T20:46:28.376Z,1.83
2019-06-08T20:48:31.638Z,2.03
2019-06-08T20:50:37.803Z,2.13
2019-06-08T20:52:42.527Z,2.33
2019-06-08T20:54:48.764Z,2.13
2019-06-08T20:56:53.510Z,2.43
2019-06-08T20:58:59.655Z,2.10
2019-06-08T21:01:04.320Z,2.20
2019-06-08T21:03:08.833Z,3.10
2019-06-08T21:05:13.414Z,1.97
2019-06-08T21:07:17.992Z,1.90
2019-06-08T21:09:22.567Z,2.07
2019-06-08T21:11:30.469Z,2.33
2019-06-08T21:13:37.350Z,1.80
2019-06-08T21:15:41.310Z,2.67
2019-06-08T21:17:49.132Z,1.90
2019-06-08T21:19:53.090Z,2.33
2019-06-08T21:21:59.327Z,2.10
2019-06-08T21:24:07.685Z,2.40
2019-06-08T21:26:11.594Z,2.17
2019-06-08T21:28:17.175Z,2.20
2019-06-08T21:30:24.709Z,1.90
2019-06-08T21:32:28.399Z,2.87
2019-06-08T21:34:32.920Z,1.90
2019-06-08T21:36:37.664Z,2.03
2019-06-08T21:38:51.691Z,2.60
2019-06-08T21:40:55.975Z,2.00
2019-06-08T21:43:01.548Z,1.97
2019-06-08T21:45:09.527Z,2.83
2019-06-08T21:47:16.522Z,2.70
2019-06-08T21:49:22.660Z,2.45
2019-06-08T21:51:28.039Z,2.67
2019-06-08T21:53:35.111Z,2.50
2019-06-08T21:55:40.259Z,2.85
2019-06-08T21:57:45.002Z,2.50
2019-06-08T22:00:05.735Z,2.42
2019-06-08T22:01:59.449Z,2.65
2019-06-08T22:04:07.767Z,2.20
2019-06-08T22:06:12.738Z,1.87
2019-06-08T22:08:17.670Z,2.45
2019-06-08T22:10:22.798Z,1.70
2019-06-08T22:12:27.734Z,2.00
2019-06-08T22:14:34.945Z,2.65
2019-06-08T22:16:40.051Z,1.90
2019-06-08T22:18:47.338Z,2.17
2019-06-08T22:20:52.973Z,2.08
2019-06-08T22:22:59.415Z,2.77
2019-06-08T22:25:04.568Z,2.30
2019-06-08T22:27:09.408Z,2.20
2019-06-08T22:29:14.187Z,2.42
2019-06-08T22:31:18.906Z,1.90
2019-06-08T22:33:24.478Z,2.25
2019-06-08T22:35:29.146Z,2.10
2019-06-08T22:37:33.747Z,1.60
2019-06-08T22:39:38.658Z,3.08
2019-06-08T22:41:47.739Z,2.47
2019-06-08T22:43:53.504Z,1.90
2019-06-08T22:46:01.698Z,2.40
2019-06-08T22:48:07.936Z,2.63
2019-06-08T22:50:11.973Z,1.57
2019-06-08T22:52:18.526Z,2.13
2019-06-08T22:54:22.981Z,2.63
2019-06-08T22:56:29.823Z,2.27
2019-06-08T22:58:34.508Z,2.20
2019-06-08T23:00:52.173Z,2.20
2019-06-08T23:02:48.599Z,2.30
2019-06-08T23:04:54.660Z,2.30
2019-06-08T23:07:02.833Z,2.87
2019-06-08T23:09:08.752Z,2.67
2019-06-08T23:11:13.134Z,2.20
2019-06-08T23:13:18.116Z,2.37
2019-06-08T23:15:23.139Z,2.70
2019-06-08T23:17:28.090Z,2.33
2019-06-08T23:19:33.141Z,2.50
2019-06-08T23:21:38.213Z,2.30
2019-06-08T23:23:42.947Z,2.83
2019-06-08T23:25:48.037Z,2.03
2019-06-08T23:27:52.960Z,2.40
2019-06-08T23:29:59.940Z,2.30
2019-06-08T23:32:04.863Z,2.10
2019-06-08T23:34:11.416Z,2.50
2019-06-08T23:36:44.911Z,2.20
2019-06-08T23:38:22.336Z,2.80
2019-06-08T23:40:27.249Z,2.10
2019-06-08T23:42:31.946Z,2.10
2019-06-08T23:44:37.754Z,2.33
2019-06-08T23:46:42.350Z,2.13
2019-06-08T23:48:48.421Z,2.17
2019-06-08T23:50:53.238Z,2.57
2019-06-08T23:52:58.140Z,2.23
2019-06-08T23:55:05.348Z,1.85
2019-06-08T23:57:11.454Z,1.80
2019-06-08T23:59:17.823Z,2.13
